Главная страница
METAR-TAF:

METAR-TAF

Аэропорты :

Гаррисберг, Пенсильвания, США

широта: 40-13-02N, долгота: 076-51-05W, высота над уровнем моря: 106 м

Текущие метеонаблюдения

Эта сводка был подготовлена 38 минут назад, в 00:56 UTC
Ветер 9 Узел от северный с порывами до 17 Узел
Температура 1°C
Влажность 40%
Давление 1022 hPa
Видимость: 16.1 км
Рассеянная облачность на высоте 6500 фута

METAR: KCXY 130056Z 36009G17KT 10SM BKN065 01/M11 A3019 RMK AO2 SLP227 T00061111

Время: 20:34 (01:34 UTC)


TAF: отсутствует

Метеонаблюдения и прогнозы для более 4000 аэропортов (сводки METAR и TAF).

Имеющиеся станции представлены на карте желтыми и красными точками.

Чтобы увидеть название станции, наведите на нее мышь.

Затем щелкните, чтобы увидеть метеонаблюдения и метеопрогнозы.

Управление картой: чтобы увеличить масштаб, щелкните зеленые кнопки с черным крестиком; чтобы уменьшить масштаб, щелкните зеленую кнопку с тире; для просмотра соседних карт щелкайте зеленые стрелки.


METAR-TAF: